Saturday, May 26, 2018, 12:09 PM GMT
Back to Local

CYPQ, Peterborough Airport

Location: , , Canada Lat: 44.233
Local Time: 12:09 PM GMT (12:09 GMT) Lon: -78.367
Time Zone: GMT Elev: 626 ft

Show me the last for .
Show Decoded

2018-05-26 11:00 METAR CYPQ 261100Z AUTO 00000KT 9SM FEW210 17/14 A2976 RMK SLP079 DENSITY ALT
                 1100FT =
2018-05-26 10:00 METAR CYPQ 261000Z AUTO 00000KT 9SM FEW080 SCT220 15/13 A2975 RMK SLP075 DENSITY
                 ALT 900FT =
2018-05-26 09:00 METAR CYPQ 260900Z AUTO 19003KT 9SM FEW220 16/13 A2972 RMK SLP065 DENSITY ALT
                 1100FT =
2018-05-26 08:00 METAR CYPQ 260800Z AUTO 00000KT 9SM BKN200 19/12 A2972 RMK SLP063 DENSITY ALT
                 1400FT =
2018-05-26 07:00 METAR CYPQ 260700Z AUTO 20005KT 9SM CLR 19/12 A2972 RMK SLP062 DENSITY ALT
                 1400FT =
2018-05-26 06:00 METAR CYPQ 260600Z AUTO 20005KT 9SM SCT120 19/13 A2974 RMK SLP070 DENSITY ALT
                 1300FT =
2018-05-26 05:00 METAR CYPQ 260500Z AUTO 23003KT 9SM OVC130 17/13 A2974 RMK SLP071 DENSITY ALT
                 1200FT =
2018-05-26 04:00 METAR CYPQ 260400Z AUTO 19002KT 9SM SCT160 17/13 A2974 RMK SLP071 DENSITY ALT
                 1200FT =
2018-05-26 03:00 METAR CYPQ 260300Z AUTO 00000KT 9SM SCT160 SCT180 17/14 A2975 RMK SLP074 DENSITY
                 ALT 1100FT =
2018-05-26 02:00 METAR CYPQ 260200Z AUTO 22002KT 9SM CLR 17/14 A2975 RMK SLP076 DENSITY ALT
                 1200FT =
2018-05-26 01:00 METAR CYPQ 260100Z AUTO 20003KT 9SM BKN130 22/12 A2975 RMK SLP075 DENSITY ALT
                 1700FT =
2018-05-26 00:00 METAR CYPQ 260000Z AUTO 22005KT 190V270 9SM BKN070 24/11 A2976 RMK SLP076
                 DENSITY ALT 1900FT =
2018-05-25 23:00 METAR CYPQ 252300Z AUTO 21009G16KT 180V240 9SM BKN075 BKN100 BKN120 26/12 A2975
                 RMK SLP075 DENSITY ALT 2100FT =
2018-05-25 22:00 METAR CYPQ 252200Z AUTO 22014G22KT 180V250 9SM BKN080 BKN091 26/12 A2976 RMK
                 SLP078 DENSITY ALT 2200FT =
2018-05-25 21:00 METAR CYPQ 252100Z AUTO 22014G21KT 190V260 9SM CLR 28/12 A2977 RMK SLP081
                 DENSITY ALT 2300FT =
2018-05-25 20:00 METAR CYPQ 252000Z AUTO 21012G18KT 9SM SCT120 BKN150 27/12 A2978 RMK SLP086
                 DENSITY ALT 2300FT =
2018-05-25 19:00 METAR CYPQ 251900Z AUTO 21011G17KT 180V240 9SM CLR 28/13 A2981 RMK SLP094
                 DENSITY ALT 2300FT =
2018-05-25 18:00 METAR CYPQ 251800Z AUTO 21013G19KT 170V230 9SM SCT070 28/12 A2982 RMK SLP098
                 DENSITY ALT 2300FT =
2018-05-25 17:00 METAR CYPQ 251700Z AUTO 28013G21KT 9SM CLR 28/13 A2984 RMK SLP105 DENSITY ALT
                 2300FT =
2018-05-25 16:00 METAR CYPQ 251600Z AUTO 27014G19KT 9SM CLR 27/13 A2986 RMK SLP113 DENSITY ALT
                 2200FT =
2018-05-25 15:00 METAR CYPQ 251500Z AUTO 26008KT 220V280 9SM SCT170 25/13 A2989 RMK SLP121
                 DENSITY ALT 1900FT =
2018-05-25 14:00 METAR CYPQ 251400Z AUTO 27007KT 9SM SCT110 SCT200 23/13 A2991 RMK SLP129 DENSITY
                 ALT 1700FT =
2018-05-25 13:00 METAR CYPQ 251300Z AUTO 27008KT 9SM SCT110 OVC130 21/12 A2993 RMK SLP136 DENSITY
                 ALT 1400FT =

Support USWX by starting your Amazon purchase here.